sensor_id;sensor_type;location;lat;lon;timestamp;P1;durP1;ratioP1;P2;durP2;ratioP2
76167;SDS011;64927;48.214;16.378;2023-02-17T00:02:07;83.85;;;45.85;;
76167;SDS011;64927;48.214;16.378;2023-02-17T00:04:36;83.85;;;43.28;;
76167;SDS011;64927;48.214;16.378;2023-02-17T00:07:01;84.80;;;45.03;;
76167;SDS011;64927;48.214;16.378;2023-02-17T00:09:27;84.32;;;44.50;;
76167;SDS011;64927;48.214;16.378;2023-02-17T00:11:53;84.85;;;44.85;;
76167;SDS011;64927;48.214;16.378;2023-02-17T00:14:18;89.13;;;45.83;;
76167;SDS011;64927;48.214;16.378;2023-02-17T00:16:44;86.15;;;45.58;;
76167;SDS011;64927;48.214;16.378;2023-02-17T00:19:10;83.13;;;44.20;;
76167;SDS011;64927;48.214;16.378;2023-02-17T00:21:50;87.43;;;45.40;;
76167;SDS011;64927;48.214;16.378;2023-02-17T00:24:17;81.82;;;43.47;;
76167;SDS011;64927;48.214;16.378;2023-02-17T00:26:43;84.63;;;43.75;;
76167;SDS011;64927;48.214;16.378;2023-02-17T00:29:08;76.15;;;43.17;;
76167;SDS011;64927;48.214;16.378;2023-02-17T00:31:34;84.38;;;44.13;;
76167;SDS011;64927;48.214;16.378;2023-02-17T00:34:00;82.47;;;43.70;;
76167;SDS011;64927;48.214;16.378;2023-02-17T00:36:28;89.55;;;44.08;;
76167;SDS011;64927;48.214;16.378;2023-02-17T00:38:54;81.45;;;43.08;;
76167;SDS011;64927;48.214;16.378;2023-02-17T00:41:24;85.88;;;43.47;;
76167;SDS011;64927;48.214;16.378;2023-02-17T00:43:51;83.15;;;41.80;;
76167;SDS011;64927;48.214;16.378;2023-02-17T00:46:17;84.18;;;43.50;;
76167;SDS011;64927;48.214;16.378;2023-02-17T00:48:46;88.35;;;44.03;;
76167;SDS011;64927;48.214;16.378;2023-02-17T00:51:13;81.25;;;42.42;;
76167;SDS011;64927;48.214;16.378;2023-02-17T00:53:40;87.70;;;44.15;;
76167;SDS011;64927;48.214;16.378;2023-02-17T00:56:06;81.85;;;43.75;;
76167;SDS011;64927;48.214;16.378;2023-02-17T00:58:32;79.28;;;41.28;;
76167;SDS011;64927;48.214;16.378;2023-02-17T01:01:00;78.40;;;41.83;;
76167;SDS011;64927;48.214;16.378;2023-02-17T01:03:27;86.00;;;43.90;;
76167;SDS011;64927;48.214;16.378;2023-02-17T01:05:54;80.88;;;41.60;;
76167;SDS011;64927;48.214;16.378;2023-02-17T01:08:21;85.88;;;44.03;;
76167;SDS011;64927;48.214;16.378;2023-02-17T01:10:48;88.22;;;44.40;;
76167;SDS011;64927;48.214;16.378;2023-02-17T01:13:15;80.55;;;43.53;;
76167;SDS011;64927;48.214;16.378;2023-02-17T01:15:46;82.38;;;44.50;;
76167;SDS011;64927;48.214;16.378;2023-02-17T01:18:13;75.65;;;40.88;;
76167;SDS011;64927;48.214;16.378;2023-02-17T01:20:42;78.80;;;42.25;;
76167;SDS011;64927;48.214;16.378;2023-02-17T01:23:11;84.28;;;42.55;;
76167;SDS011;64927;48.214;16.378;2023-02-17T01:25:37;88.68;;;43.67;;
76167;SDS011;64927;48.214;16.378;2023-02-17T01:28:08;76.78;;;41.67;;
76167;SDS011;64927;48.214;16.378;2023-02-17T01:30:38;75.38;;;40.63;;
76167;SDS011;64927;48.214;16.378;2023-02-17T01:33:03;83.90;;;43.22;;
76167;SDS011;64927;48.214;16.378;2023-02-17T01:35:29;78.78;;;41.38;;
76167;SDS011;64927;48.214;16.378;2023-02-17T01:37:55;74.25;;;40.28;;
76167;SDS011;64927;48.214;16.378;2023-02-17T01:40:20;72.80;;;39.42;;
76167;SDS011;64927;48.214;16.378;2023-02-17T01:42:46;75.40;;;40.63;;
76167;SDS011;64927;48.214;16.378;2023-02-17T01:47:51;75.15;;;40.22;;
76167;SDS011;64927;48.214;16.378;2023-02-17T01:50:24;79.68;;;41.78;;
76167;SDS011;64927;48.214;16.378;2023-02-17T01:52:54;76.45;;;41.35;;
76167;SDS011;64927;48.214;16.378;2023-02-17T01:55:22;72.82;;;40.00;;
76167;SDS011;64927;48.214;16.378;2023-02-17T01:57:52;78.22;;;40.47;;
76167;SDS011;64927;48.214;16.378;2023-02-17T02:00:20;73.68;;;39.13;;
76167;SDS011;64927;48.214;16.378;2023-02-17T02:02:49;78.85;;;40.20;;
76167;SDS011;64927;48.214;16.378;2023-02-17T02:05:18;74.35;;;39.95;;
76167;SDS011;64927;48.214;16.378;2023-02-17T02:07:45;79.32;;;40.95;;
76167;SDS011;64927;48.214;16.378;2023-02-17T02:10:12;77.47;;;42.75;;
76167;SDS011;64927;48.214;16.378;2023-02-17T02:12:43;79.85;;;42.28;;
76167;SDS011;64927;48.214;16.378;2023-02-17T02:15:13;76.18;;;42.58;;
76167;SDS011;64927;48.214;16.378;2023-02-17T02:20:27;81.07;;;42.35;;
76167;SDS011;64927;48.214;16.378;2023-02-17T02:39:03;80.68;;;41.50;;
76167;SDS011;64927;48.214;16.378;2023-02-17T02:41:45;70.40;;;40.25;;
76167;SDS011;64927;48.214;16.378;2023-02-17T02:44:15;72.63;;;40.00;;
76167;SDS011;64927;48.214;16.378;2023-02-17T02:46:43;75.50;;;41.47;;
76167;SDS011;64927;48.214;16.378;2023-02-17T02:49:09;69.97;;;40.90;;
76167;SDS011;64927;48.214;16.378;2023-02-17T02:54:18;80.28;;;40.60;;
76167;SDS011;64927;48.214;16.378;2023-02-17T03:02:17;69.72;;;38.33;;
76167;SDS011;64927;48.214;16.378;2023-02-17T03:07:47;72.07;;;38.17;;
76167;SDS011;64927;48.214;16.378;2023-02-17T03:10:19;73.55;;;37.45;;
76167;SDS011;64927;48.214;16.378;2023-02-17T03:12:46;71.00;;;38.75;;
76167;SDS011;64927;48.214;16.378;2023-02-17T03:15:21;68.68;;;38.30;;
76167;SDS011;64927;48.214;16.378;2023-02-17T03:17:54;74.07;;;39.15;;
76167;SDS011;64927;48.214;16.378;2023-02-17T03:20:21;72.07;;;39.25;;
76167;SDS011;64927;48.214;16.378;2023-02-17T03:22:47;69.43;;;37.08;;
76167;SDS011;64927;48.214;16.378;2023-02-17T03:25:13;66.38;;;35.50;;
76167;SDS011;64927;48.214;16.378;2023-02-17T03:27:39;64.45;;;37.65;;
76167;SDS011;64927;48.214;16.378;2023-02-17T03:30:05;70.97;;;39.28;;
76167;SDS011;64927;48.214;16.378;2023-02-17T03:32:32;64.80;;;35.38;;
76167;SDS011;64927;48.214;16.378;2023-02-17T03:34:57;65.78;;;37.33;;
76167;SDS011;64927;48.214;16.378;2023-02-17T03:37:23;63.05;;;35.92;;
76167;SDS011;64927;48.214;16.378;2023-02-17T03:39:49;63.20;;;35.80;;
76167;SDS011;64927;48.214;16.378;2023-02-17T03:42:14;70.95;;;35.92;;
76167;SDS011;64927;48.214;16.378;2023-02-17T03:44:40;67.68;;;36.13;;
76167;SDS011;64927;48.214;16.378;2023-02-17T03:47:06;65.18;;;37.55;;
76167;SDS011;64927;48.214;16.378;2023-02-17T03:49:32;62.58;;;36.08;;
76167;SDS011;64927;48.214;16.378;2023-02-17T03:51:57;66.70;;;35.60;;
76167;SDS011;64927;48.214;16.378;2023-02-17T03:54:23;64.75;;;36.78;;
76167;SDS011;64927;48.214;16.378;2023-02-17T03:56:52;64.03;;;37.10;;
76167;SDS011;64927;48.214;16.378;2023-02-17T03:59:17;63.78;;;35.53;;
76167;SDS011;64927;48.214;16.378;2023-02-17T04:01:43;62.72;;;36.05;;
76167;SDS011;64927;48.214;16.378;2023-02-17T04:04:11;64.70;;;35.88;;
76167;SDS011;64927;48.214;16.378;2023-02-17T04:06:37;68.22;;;36.25;;
76167;SDS011;64927;48.214;16.378;2023-02-17T04:09:02;64.72;;;36.88;;
76167;SDS011;64927;48.214;16.378;2023-02-17T04:11:28;60.05;;;36.42;;
76167;SDS011;64927;48.214;16.378;2023-02-17T04:13:54;59.40;;;35.17;;
76167;SDS011;64927;48.214;16.378;2023-02-17T04:16:19;62.20;;;36.85;;
76167;SDS011;64927;48.214;16.378;2023-02-17T04:18:45;58.72;;;32.15;;
76167;SDS011;64927;48.214;16.378;2023-02-17T04:21:13;63.40;;;35.60;;
76167;SDS011;64927;48.214;16.378;2023-02-17T04:23:39;65.75;;;34.58;;
76167;SDS011;64927;48.214;16.378;2023-02-17T04:26:05;62.38;;;35.90;;
76167;SDS011;64927;48.214;16.378;2023-02-17T04:28:32;62.53;;;35.97;;
76167;SDS011;64927;48.214;16.378;2023-02-17T04:30:58;69.43;;;36.28;;
76167;SDS011;64927;48.214;16.378;2023-02-17T04:33:24;66.80;;;35.72;;
76167;SDS011;64927;48.214;16.378;2023-02-17T04:35:50;67.57;;;36.65;;
76167;SDS011;64927;48.214;16.378;2023-02-17T04:38:16;68.13;;;37.35;;
76167;SDS011;64927;48.214;16.378;2023-02-17T04:40:43;69.28;;;37.67;;
76167;SDS011;64927;48.214;16.378;2023-02-17T04:43:09;64.57;;;36.00;;
76167;SDS011;64927;48.214;16.378;2023-02-17T04:45:35;67.03;;;36.58;;
76167;SDS011;64927;48.214;16.378;2023-02-17T04:48:01;70.25;;;35.42;;
76167;SDS011;64927;48.214;16.378;2023-02-17T04:50:27;67.82;;;38.10;;
76167;SDS011;64927;48.214;16.378;2023-02-17T04:52:53;71.43;;;36.00;;
76167;SDS011;64927;48.214;16.378;2023-02-17T04:55:18;67.65;;;36.65;;
76167;SDS011;64927;48.214;16.378;2023-02-17T04:57:44;60.22;;;34.38;;
76167;SDS011;64927;48.214;16.378;2023-02-17T05:00:10;68.72;;;35.70;;
76167;SDS011;64927;48.214;16.378;2023-02-17T05:02:36;64.15;;;36.08;;
76167;SDS011;64927;48.214;16.378;2023-02-17T05:05:04;64.10;;;35.75;;
76167;SDS011;64927;48.214;16.378;2023-02-17T05:07:30;63.78;;;36.15;;
76167;SDS011;64927;48.214;16.378;2023-02-17T05:10:00;61.10;;;34.20;;
76167;SDS011;64927;48.214;16.378;2023-02-17T05:12:26;63.88;;;35.53;;
76167;SDS011;64927;48.214;16.378;2023-02-17T05:14:51;56.17;;;33.88;;
76167;SDS011;64927;48.214;16.378;2023-02-17T05:17:17;66.90;;;37.83;;
76167;SDS011;64927;48.214;16.378;2023-02-17T05:19:43;62.10;;;34.97;;
76167;SDS011;64927;48.214;16.378;2023-02-17T05:22:08;60.58;;;34.65;;
76167;SDS011;64927;48.214;16.378;2023-02-17T05:24:34;62.65;;;34.75;;
76167;SDS011;64927;48.214;16.378;2023-02-17T05:27:00;60.60;;;33.45;;
76167;SDS011;64927;48.214;16.378;2023-02-17T05:29:25;58.15;;;33.65;;
76167;SDS011;64927;48.214;16.378;2023-02-17T05:31:51;61.35;;;33.33;;
76167;SDS011;64927;48.214;16.378;2023-02-17T05:34:17;54.65;;;32.78;;
76167;SDS011;64927;48.214;16.378;2023-02-17T05:36:42;51.47;;;31.35;;
76167;SDS011;64927;48.214;16.378;2023-02-17T05:39:08;62.90;;;34.38;;
76167;SDS011;64927;48.214;16.378;2023-02-17T05:41:34;53.30;;;31.17;;
76167;SDS011;64927;48.214;16.378;2023-02-17T05:43:59;49.45;;;29.52;;
76167;SDS011;64927;48.214;16.378;2023-02-17T05:46:25;51.28;;;30.23;;
76167;SDS011;64927;48.214;16.378;2023-02-17T05:48:50;51.88;;;28.65;;
76167;SDS011;64927;48.214;16.378;2023-02-17T05:51:16;50.40;;;28.33;;
76167;SDS011;64927;48.214;16.378;2023-02-17T05:53:42;48.97;;;26.88;;
76167;SDS011;64927;48.214;16.378;2023-02-17T05:56:08;45.65;;;25.58;;
76167;SDS011;64927;48.214;16.378;2023-02-17T05:58:34;45.75;;;27.75;;
76167;SDS011;64927;48.214;16.378;2023-02-17T06:01:00;45.40;;;25.70;;
76167;SDS011;64927;48.214;16.378;2023-02-17T06:03:28;43.20;;;26.23;;
76167;SDS011;64927;48.214;16.378;2023-02-17T06:05:56;38.80;;;23.05;;
76167;SDS011;64927;48.214;16.378;2023-02-17T06:08:21;31.70;;;19.83;;
76167;SDS011;64927;48.214;16.378;2023-02-17T06:10:47;17.35;;;10.95;;
76167;SDS011;64927;48.214;16.378;2023-02-17T06:13:12;16.13;;;8.73;;
76167;SDS011;64927;48.214;16.378;2023-02-17T06:15:38;17.23;;;6.85;;
76167;SDS011;64927;48.214;16.378;2023-02-17T06:18:04;12.20;;;5.32;;
76167;SDS011;64927;48.214;16.378;2023-02-17T06:20:33;9.43;;;5.65;;
76167;SDS011;64927;48.214;16.378;2023-02-17T06:22:58;11.10;;;5.80;;
76167;SDS011;64927;48.214;16.378;2023-02-17T06:25:24;12.20;;;5.90;;
76167;SDS011;64927;48.214;16.378;2023-02-17T06:27:50;14.73;;;5.82;;
76167;SDS011;64927;48.214;16.378;2023-02-17T06:30:15;12.43;;;5.72;;
76167;SDS011;64927;48.214;16.378;2023-02-17T06:32:41;18.73;;;5.93;;
76167;SDS011;64927;48.214;16.378;2023-02-17T06:35:07;13.40;;;6.80;;
76167;SDS011;64927;48.214;16.378;2023-02-17T06:37:35;12.77;;;5.93;;
76167;SDS011;64927;48.214;16.378;2023-02-17T06:40:01;14.07;;;6.50;;
76167;SDS011;64927;48.214;16.378;2023-02-17T06:42:27;13.85;;;6.00;;
76167;SDS011;64927;48.214;16.378;2023-02-17T06:44:53;13.85;;;6.85;;
76167;SDS011;64927;48.214;16.378;2023-02-17T06:47:18;16.52;;;5.90;;
76167;SDS011;64927;48.214;16.378;2023-02-17T06:49:44;15.38;;;6.40;;
76167;SDS011;64927;48.214;16.378;2023-02-17T06:52:10;18.02;;;6.22;;
76167;SDS011;64927;48.214;16.378;2023-02-17T06:54:37;18.67;;;6.20;;
76167;SDS011;64927;48.214;16.378;2023-02-17T06:57:03;10.50;;;6.05;;
76167;SDS011;64927;48.214;16.378;2023-02-17T06:59:30;10.55;;;6.10;;
76167;SDS011;64927;48.214;16.378;2023-02-17T07:01:57;12.55;;;6.57;;
76167;SDS011;64927;48.214;16.378;2023-02-17T07:04:27;11.07;;;6.15;;
76167;SDS011;64927;48.214;16.378;2023-02-17T07:06:55;10.27;;;6.10;;
76167;SDS011;64927;48.214;16.378;2023-02-17T07:09:20;15.55;;;6.88;;
76167;SDS011;64927;48.214;16.378;2023-02-17T07:11:46;20.55;;;7.18;;
76167;SDS011;64927;48.214;16.378;2023-02-17T07:14:12;16.77;;;6.50;;
76167;SDS011;64927;48.214;16.378;2023-02-17T07:16:38;14.65;;;7.80;;
76167;SDS011;64927;48.214;16.378;2023-02-17T07:19:06;14.82;;;6.07;;
76167;SDS011;64927;48.214;16.378;2023-02-17T07:21:32;10.90;;;6.22;;
76167;SDS011;64927;48.214;16.378;2023-02-17T07:23:58;13.18;;;5.72;;
76167;SDS011;64927;48.214;16.378;2023-02-17T07:26:26;13.27;;;5.40;;
76167;SDS011;64927;48.214;16.378;2023-02-17T07:28:51;13.98;;;7.05;;
76167;SDS011;64927;48.214;16.378;2023-02-17T07:31:17;15.60;;;6.47;;
76167;SDS011;64927;48.214;16.378;2023-02-17T07:33:43;12.40;;;6.93;;
76167;SDS011;64927;48.214;16.378;2023-02-17T07:36:13;15.00;;;8.15;;
76167;SDS011;64927;48.214;16.378;2023-02-17T07:38:40;15.73;;;6.85;;
76167;SDS011;64927;48.214;16.378;2023-02-17T07:41:10;19.67;;;7.35;;
76167;SDS011;64927;48.214;16.378;2023-02-17T07:43:40;13.88;;;7.65;;
76167;SDS011;64927;48.214;16.378;2023-02-17T07:46:06;14.02;;;7.22;;
76167;SDS011;64927;48.214;16.378;2023-02-17T07:48:33;14.48;;;7.57;;
76167;SDS011;64927;48.214;16.378;2023-02-17T07:53:36;19.58;;;8.18;;
76167;SDS011;64927;48.214;16.378;2023-02-17T07:56:06;20.83;;;9.25;;
76167;SDS011;64927;48.214;16.378;2023-02-17T07:58:34;22.58;;;10.50;;
76167;SDS011;64927;48.214;16.378;2023-02-17T08:01:05;24.13;;;10.60;;
76167;SDS011;64927;48.214;16.378;2023-02-17T08:03:37;29.30;;;9.50;;
76167;SDS011;64927;48.214;16.378;2023-02-17T08:06:03;21.48;;;9.18;;
76167;SDS011;64927;48.214;16.378;2023-02-17T08:08:35;18.65;;;8.32;;
76167;SDS011;64927;48.214;16.378;2023-02-17T08:11:19;23.38;;;8.32;;
76167;SDS011;64927;48.214;16.378;2023-02-17T08:14:03;17.27;;;8.38;;
76167;SDS011;64927;48.214;16.378;2023-02-17T08:16:29;20.02;;;8.82;;
76167;SDS011;64927;48.214;16.378;2023-02-17T08:18:55;24.85;;;7.95;;
76167;SDS011;64927;48.214;16.378;2023-02-17T08:21:21;17.75;;;8.35;;
76167;SDS011;64927;48.214;16.378;2023-02-17T08:23:47;16.67;;;7.93;;
76167;SDS011;64927;48.214;16.378;2023-02-17T08:26:12;20.58;;;8.25;;
76167;SDS011;64927;48.214;16.378;2023-02-17T08:28:39;18.70;;;8.32;;
76167;SDS011;64927;48.214;16.378;2023-02-17T08:31:05;18.33;;;8.55;;
76167;SDS011;64927;48.214;16.378;2023-02-17T08:33:30;21.85;;;7.10;;
76167;SDS011;64927;48.214;16.378;2023-02-17T08:36:04;17.27;;;6.10;;
76167;SDS011;64927;48.214;16.378;2023-02-17T08:38:31;14.93;;;4.53;;
76167;SDS011;64927;48.214;16.378;2023-02-17T08:40:57;14.60;;;5.30;;
76167;SDS011;64927;48.214;16.378;2023-02-17T08:43:25;12.82;;;3.90;;
76167;SDS011;64927;48.214;16.378;2023-02-17T08:45:53;11.60;;;4.40;;
76167;SDS011;64927;48.214;16.378;2023-02-17T08:48:21;10.00;;;3.90;;
76167;SDS011;64927;48.214;16.378;2023-02-17T08:50:47;11.02;;;4.97;;
76167;SDS011;64927;48.214;16.378;2023-02-17T08:53:16;11.63;;;5.05;;
76167;SDS011;64927;48.214;16.378;2023-02-17T08:55:41;10.25;;;4.22;;
76167;SDS011;64927;48.214;16.378;2023-02-17T08:58:07;9.68;;;4.75;;
76167;SDS011;64927;48.214;16.378;2023-02-17T09:00:33;15.38;;;4.70;;
76167;SDS011;64927;48.214;16.378;2023-02-17T09:02:58;12.93;;;4.88;;
76167;SDS011;64927;48.214;16.378;2023-02-17T09:05:24;12.00;;;4.93;;
76167;SDS011;64927;48.214;16.378;2023-02-17T09:07:50;9.07;;;5.00;;
76167;SDS011;64927;48.214;16.378;2023-02-17T09:10:16;11.63;;;4.80;;
76167;SDS011;64927;48.214;16.378;2023-02-17T09:12:41;13.18;;;5.55;;
76167;SDS011;64927;48.214;16.378;2023-02-17T09:15:07;12.77;;;5.70;;
76167;SDS011;64927;48.214;16.378;2023-02-17T09:17:36;8.48;;;4.53;;
76167;SDS011;64927;48.214;16.378;2023-02-17T09:20:03;16.45;;;5.25;;
76167;SDS011;64927;48.214;16.378;2023-02-17T09:22:30;13.05;;;5.63;;
76167;SDS011;64927;48.214;16.378;2023-02-17T09:24:59;13.15;;;4.70;;
76167;SDS011;64927;48.214;16.378;2023-02-17T09:27:24;14.23;;;5.18;;
76167;SDS011;64927;48.214;16.378;2023-02-17T09:29:50;15.30;;;5.43;;
76167;SDS011;64927;48.214;16.378;2023-02-17T09:32:16;13.13;;;5.40;;
76167;SDS011;64927;48.214;16.378;2023-02-17T09:34:44;17.00;;;5.22;;
76167;SDS011;64927;48.214;16.378;2023-02-17T09:37:15;12.38;;;4.57;;
76167;SDS011;64927;48.214;16.378;2023-02-17T09:39:44;12.75;;;5.80;;
76167;SDS011;64927;48.214;16.378;2023-02-17T09:42:18;13.10;;;5.07;;
76167;SDS011;64927;48.214;16.378;2023-02-17T09:44:49;8.95;;;4.78;;
76167;SDS011;64927;48.214;16.378;2023-02-17T09:47:39;10.65;;;5.05;;
76167;SDS011;64927;48.214;16.378;2023-02-17T09:50:13;17.35;;;4.82;;
76167;SDS011;64927;48.214;16.378;2023-02-17T09:55:23;10.35;;;4.70;;
76167;SDS011;64927;48.214;16.378;2023-02-17T09:58:12;14.48;;;4.95;;
76167;SDS011;64927;48.214;16.378;2023-02-17T10:00:40;19.30;;;5.45;;
76167;SDS011;64927;48.214;16.378;2023-02-17T10:06:08;11.50;;;4.43;;
76167;SDS011;64927;48.214;16.378;2023-02-17T10:14:02;12.60;;;4.65;;
76167;SDS011;64927;48.214;16.378;2023-02-17T10:16:34;11.50;;;4.55;;
76167;SDS011;64927;48.214;16.378;2023-02-17T10:19:14;14.80;;;5.43;;
76167;SDS011;64927;48.214;16.378;2023-02-17T10:21:55;12.55;;;4.55;;
76167;SDS011;64927;48.214;16.378;2023-02-17T10:24:41;9.85;;;4.93;;
76167;SDS011;64927;48.214;16.378;2023-02-17T10:35:36;13.55;;;4.70;;
76167;SDS011;64927;48.214;16.378;2023-02-17T10:41:03;11.55;;;4.85;;
76167;SDS011;64927;48.214;16.378;2023-02-17T10:43:33;15.45;;;5.28;;
76167;SDS011;64927;48.214;16.378;2023-02-17T10:45:59;6.85;;;4.25;;
76167;SDS011;64927;48.214;16.378;2023-02-17T10:48:32;9.95;;;4.60;;
76167;SDS011;64927;48.214;16.378;2023-02-17T10:51:04;12.52;;;5.10;;
76167;SDS011;64927;48.214;16.378;2023-02-17T10:53:32;10.57;;;4.68;;
76167;SDS011;64927;48.214;16.378;2023-02-17T10:56:12;9.05;;;4.53;;
76167;SDS011;64927;48.214;16.378;2023-02-17T11:01:22;11.18;;;4.97;;
76167;SDS011;64927;48.214;16.378;2023-02-17T11:04:05;11.93;;;4.30;;
76167;SDS011;64927;48.214;16.378;2023-02-17T11:06:36;7.55;;;3.50;;
76167;SDS011;64927;48.214;16.378;2023-02-17T11:09:24;14.85;;;3.53;;
76167;SDS011;64927;48.214;16.378;2023-02-17T11:11:59;10.60;;;4.30;;
76167;SDS011;64927;48.214;16.378;2023-02-17T11:14:28;8.73;;;3.85;;
76167;SDS011;64927;48.214;16.378;2023-02-17T11:17:03;9.57;;;3.67;;
76167;SDS011;64927;48.214;16.378;2023-02-17T11:19:52;17.67;;;4.40;;
76167;SDS011;64927;48.214;16.378;2023-02-17T11:22:58;7.43;;;3.35;;
76167;SDS011;64927;48.214;16.378;2023-02-17T11:25:33;12.95;;;3.95;;
76167;SDS011;64927;48.214;16.378;2023-02-17T11:28:03;6.75;;;3.28;;
76167;SDS011;64927;48.214;16.378;2023-02-17T11:30:34;7.22;;;3.47;;
76167;SDS011;64927;48.214;16.378;2023-02-17T11:33:13;10.45;;;3.42;;
76167;SDS011;64927;48.214;16.378;2023-02-17T11:35:48;10.45;;;3.75;;
76167;SDS011;64927;48.214;16.378;2023-02-17T11:40:51;7.50;;;3.03;;
76167;SDS011;64927;48.214;16.378;2023-02-17T11:43:19;9.18;;;5.45;;
76167;SDS011;64927;48.214;16.378;2023-02-17T11:45:53;14.98;;;3.50;;
76167;SDS011;64927;48.214;16.378;2023-02-17T11:48:42;10.65;;;3.78;;
76167;SDS011;64927;48.214;16.378;2023-02-17T11:56:46;10.75;;;3.50;;
76167;SDS011;64927;48.214;16.378;2023-02-17T11:59:50;10.95;;;3.80;;
76167;SDS011;64927;48.214;16.378;2023-02-17T12:03:08;7.35;;;3.63;;
76167;SDS011;64927;48.214;16.378;2023-02-17T12:08:00;8.90;;;3.80;;
76167;SDS011;64927;48.214;16.378;2023-02-17T12:10:42;5.85;;;2.92;;
76167;SDS011;64927;48.214;16.378;2023-02-17T12:13:28;8.60;;;2.35;;
76167;SDS011;64927;48.214;16.378;2023-02-17T12:16:44;8.63;;;3.28;;
76167;SDS011;64927;48.214;16.378;2023-02-17T12:22:02;9.27;;;3.42;;
76167;SDS011;64927;48.214;16.378;2023-02-17T12:35:37;8.15;;;3.20;;
76167;SDS011;64927;48.214;16.378;2023-02-17T12:38:15;10.98;;;3.22;;
76167;SDS011;64927;48.214;16.378;2023-02-17T12:43:36;9.98;;;3.45;;
76167;SDS011;64927;48.214;16.378;2023-02-17T12:46:09;11.18;;;3.58;;
76167;SDS011;64927;48.214;16.378;2023-02-17T12:51:10;10.48;;;3.85;;
76167;SDS011;64927;48.214;16.378;2023-02-17T12:53:49;7.55;;;3.30;;
76167;SDS011;64927;48.214;16.378;2023-02-17T12:58:52;8.20;;;3.00;;
76167;SDS011;64927;48.214;16.378;2023-02-17T13:01:23;7.00;;;3.10;;
76167;SDS011;64927;48.214;16.378;2023-02-17T13:03:53;7.55;;;3.25;;
76167;SDS011;64927;48.214;16.378;2023-02-17T13:06:23;7.07;;;3.05;;
76167;SDS011;64927;48.214;16.378;2023-02-17T13:09:11;8.68;;;2.72;;
76167;SDS011;64927;48.214;16.378;2023-02-17T13:11:51;8.50;;;2.95;;
76167;SDS011;64927;48.214;16.378;2023-02-17T13:14:24;10.15;;;2.90;;
76167;SDS011;64927;48.214;16.378;2023-02-17T13:16:55;6.55;;;2.53;;
76167;SDS011;64927;48.214;16.378;2023-02-17T13:19:28;4.28;;;2.42;;
76167;SDS011;64927;48.214;16.378;2023-02-17T13:21:55;7.32;;;2.83;;
76167;SDS011;64927;48.214;16.378;2023-02-17T13:24:31;8.65;;;2.78;;
76167;SDS011;64927;48.214;16.378;2023-02-17T13:27:11;11.13;;;2.90;;
76167;SDS011;64927;48.214;16.378;2023-02-17T13:30:37;9.30;;;3.05;;
76167;SDS011;64927;48.214;16.378;2023-02-17T13:32:45;8.15;;;3.33;;
76167;SDS011;64927;48.214;16.378;2023-02-17T13:37:42;12.55;;;2.75;;
76167;SDS011;64927;48.214;16.378;2023-02-17T13:42:44;7.90;;;2.50;;
76167;SDS011;64927;48.214;16.378;2023-02-17T13:45:17;8.80;;;3.03;;
76167;SDS011;64927;48.214;16.378;2023-02-17T13:47:45;8.13;;;2.63;;
76167;SDS011;64927;48.214;16.378;2023-02-17T13:50:33;8.60;;;2.63;;
76167;SDS011;64927;48.214;16.378;2023-02-17T13:53:02;7.10;;;2.20;;
76167;SDS011;64927;48.214;16.378;2023-02-17T13:55:44;10.25;;;2.15;;
76167;SDS011;64927;48.214;16.378;2023-02-17T13:58:10;5.15;;;2.15;;
76167;SDS011;64927;48.214;16.378;2023-02-17T14:00:35;5.20;;;2.10;;
76167;SDS011;64927;48.214;16.378;2023-02-17T14:03:05;8.00;;;1.63;;
76167;SDS011;64927;48.214;16.378;2023-02-17T14:05:41;5.80;;;1.80;;
76167;SDS011;64927;48.214;16.378;2023-02-17T14:08:13;5.15;;;2.00;;
76167;SDS011;64927;48.214;16.378;2023-02-17T14:10:52;4.75;;;2.45;;
76167;SDS011;64927;48.214;16.378;2023-02-17T14:13:18;6.85;;;1.88;;
76167;SDS011;64927;48.214;16.378;2023-02-17T14:15:55;6.45;;;2.20;;
76167;SDS011;64927;48.214;16.378;2023-02-17T14:18:40;4.57;;;1.80;;
76167;SDS011;64927;48.214;16.378;2023-02-17T14:23:48;3.97;;;2.00;;
76167;SDS011;64927;48.214;16.378;2023-02-17T14:29:07;5.05;;;1.83;;
76167;SDS011;64927;48.214;16.378;2023-02-17T14:31:35;8.20;;;1.98;;
76167;SDS011;64927;48.214;16.378;2023-02-17T14:34:28;7.65;;;1.92;;
76167;SDS011;64927;48.214;16.378;2023-02-17T14:37:18;3.38;;;1.60;;
76167;SDS011;64927;48.214;16.378;2023-02-17T14:39:47;7.53;;;1.80;;
76167;SDS011;64927;48.214;16.378;2023-02-17T14:42:13;7.78;;;1.95;;
76167;SDS011;64927;48.214;16.378;2023-02-17T14:44:39;7.00;;;1.70;;
76167;SDS011;64927;48.214;16.378;2023-02-17T14:47:06;9.68;;;1.90;;
76167;SDS011;64927;48.214;16.378;2023-02-17T14:49:32;3.88;;;1.40;;
76167;SDS011;64927;48.214;16.378;2023-02-17T14:51:58;5.25;;;2.58;;
76167;SDS011;64927;48.214;16.378;2023-02-17T14:54:25;7.68;;;1.80;;
76167;SDS011;64927;48.214;16.378;2023-02-17T14:57:06;6.53;;;1.40;;
76167;SDS011;64927;48.214;16.378;2023-02-17T14:59:36;4.88;;;1.80;;
76167;SDS011;64927;48.214;16.378;2023-02-17T15:02:02;4.55;;;1.77;;
76167;SDS011;64927;48.214;16.378;2023-02-17T15:04:30;6.03;;;1.58;;
76167;SDS011;64927;48.214;16.378;2023-02-17T15:06:56;4.30;;;1.50;;
76167;SDS011;64927;48.214;16.378;2023-02-17T15:09:27;5.05;;;1.90;;
76167;SDS011;64927;48.214;16.378;2023-02-17T15:11:54;6.60;;;1.75;;
76167;SDS011;64927;48.214;16.378;2023-02-17T15:14:21;7.45;;;1.63;;
76167;SDS011;64927;48.214;16.378;2023-02-17T15:16:48;13.68;;;7.72;;
76167;SDS011;64927;48.214;16.378;2023-02-17T15:19:15;5.60;;;2.60;;
76167;SDS011;64927;48.214;16.378;2023-02-17T15:21:43;6.95;;;2.00;;
76167;SDS011;64927;48.214;16.378;2023-02-17T15:24:24;3.70;;;1.70;;
76167;SDS011;64927;48.214;16.378;2023-02-17T15:26:50;8.10;;;2.67;;
76167;SDS011;64927;48.214;16.378;2023-02-17T15:29:20;7.50;;;1.77;;
76167;SDS011;64927;48.214;16.378;2023-02-17T15:31:47;8.07;;;1.83;;
76167;SDS011;64927;48.214;16.378;2023-02-17T15:34:15;7.30;;;1.77;;
76167;SDS011;64927;48.214;16.378;2023-02-17T15:36:45;4.78;;;1.90;;
76167;SDS011;64927;48.214;16.378;2023-02-17T15:39:12;5.10;;;1.58;;
76167;SDS011;64927;48.214;16.378;2023-02-17T15:41:42;4.65;;;1.52;;
76167;SDS011;64927;48.214;16.378;2023-02-17T15:44:16;6.72;;;1.52;;
76167;SDS011;64927;48.214;16.378;2023-02-17T15:46:55;7.47;;;2.13;;
76167;SDS011;64927;48.214;16.378;2023-02-17T15:49:21;9.95;;;2.47;;
76167;SDS011;64927;48.214;16.378;2023-02-17T15:51:47;5.22;;;1.70;;
76167;SDS011;64927;48.214;16.378;2023-02-17T15:54:13;5.32;;;1.92;;
76167;SDS011;64927;48.214;16.378;2023-02-17T15:56:47;7.85;;;2.08;;
76167;SDS011;64927;48.214;16.378;2023-02-17T15:59:16;4.85;;;1.88;;
76167;SDS011;64927;48.214;16.378;2023-02-17T16:01:43;8.98;;;1.77;;
76167;SDS011;64927;48.214;16.378;2023-02-17T16:04:09;5.30;;;1.85;;
76167;SDS011;64927;48.214;16.378;2023-02-17T16:06:37;5.55;;;1.83;;
76167;SDS011;64927;48.214;16.378;2023-02-17T16:09:03;3.97;;;1.80;;
76167;SDS011;64927;48.214;16.378;2023-02-17T16:11:29;6.38;;;1.90;;
76167;SDS011;64927;48.214;16.378;2023-02-17T16:13:59;4.80;;;2.10;;
76167;SDS011;64927;48.214;16.378;2023-02-17T16:16:27;3.72;;;1.67;;
76167;SDS011;64927;48.214;16.378;2023-02-17T16:18:57;4.65;;;2.05;;